Historyczne dane pomiarowe

Dodano dane terminowe – wersja testowa.

Dane z okresu 1951-2019

Wersja bazy: 1.34 [2019-03-16, lista zmian], aktualizacja planowana na 2019-04-15

Dane meteo z obszaru Polski uzyskane na podstawie danych udostępnionych przez Instytut Meteorologii i Gospodarki Wodnej – Państwowy Instytut Badawczy.

 

Wybierz Datę:    

       

TemperaturaWilgotnośćWiatrCiśnienieOpadyŚniegCzas trwania zjawisk
 Stacja t tx tn tng RH VA  wxwx mslp ppp RRR   cm mm wxwxwxwxwxwxwx
2019-06-13 24.1 32.2 13.6--- 1.7 2.0---- 0.0------------
2019-06-12 23.7 31.5 13.6--- 1.0 2.3---- 0.0------------
2019-06-11 23.4 30.4 12.5--- 1.0 2.7---- 0.0------------
2019-06-10 21.8 30.2 12.2--- 1.0 1.7---- 0.0------------
2019-06-09 19.6 24.0 14.8--- 4.3 1.3---- 0.0------------
2019-06-08 20.4 28.4 11.2--- 3.0 1.7---- 0.3------------
2019-06-07 19.7 26.2 12.3--- 5.3 0.7---- 0.0------------
2019-06-06 18.9 25.5 9.5--- 1.7 2.7---- 0.0------------
2019-06-05 18.7 25.5 10.6--- 2.3 1.3---- 0.0------------
2019-06-04 19.6 26.5 10.8--- 2.3 1.0---- 0.0------------
2019-06-03 19.0 25.6 9.8--- 0.7 1.0---- 0.0------------
2019-06-02 18.8 25.0 10.0--- 1.7 1.3---- 0.0------------
2019-06-01 16.5 22.6 7.2--- 3.0 1.0---- 0.0------------
2019-05-31 14.0 20.4 7.9--- 3.3 0.7---- 0.0------------
2019-05-30 9.4 10.8 8.0--- 7.7 1.0---- 21.2------------
2019-05-29 13.4 19.2 8.5--- 7.0 2.0---- 4.6------------
2019-05-28 18.8 24.4 12.2--- 5.0 4.3---- 0.0------------
2019-05-27 17.5 24.5 8.0--- 5.3 2.0---- 0.9------------
2019-05-26 15.9 22.4 9.2--- 4.7 0.7---- 0.0------------
2019-05-25 16.4 21.6 11.0--- 3.0 1.7---- 0.0------------
2019-05-24 11.7 13.5 9.9--- 7.3 1.0---- 1.2------------
2019-05-23 12.3 14.6 10.4--- 7.7 2.3---- 34.7------------
2019-05-22 13.9 17.6 11.6--- 7.3 1.0---- 13.4------------
2019-05-21 12.4 17.8 6.4--- 7.7 1.3---- 60.0------------
2019-05-20 16.9 21.6 10.6--- 6.0 3.3---- 0.9------------
2019-05-19 17.0 25.2 6.6--- 2.0 2.3---- 0.0------------
2019-05-18 17.0 24.6 8.6--- 2.0 2.0---- 0.0------------
2019-05-17 15.6 20.5 10.2--- 4.0 1.3---- 0.2------------
2019-05-16 12.6 18.6 8.2--- 7.3 1.3---- 2.3------------
2019-05-15 8.5 10.8 5.5--- 8.0 1.3---- 5.5------------
2019-05-14 5.2 7.8 2.6--- 7.7 0.7---- 15.1------------
2019-05-13 7.9 10.0 6.8--- 7.3 1.7---- 8.7------------
2019-05-12 13.2 21.6 6.7--- 5.3 1.7---- 0.0------------
2019-05-11 13.1 19.1 6.8--- 4.3 0.7---- 0.0------------
2019-05-10 11.0 18.0 6.7--- 6.3 1.7---- 7.0------------
2019-05-09 8.4 11.6 4.3--- 7.0 3.0---- 12.3------------
2019-05-08 9.2 15.4 1.7--- 1.3 1.7---- 0.0------------
2019-05-07 8.5 12.4 5.0--- 5.3 2.3---- 0.0------------
2019-05-06 6.2 8.5 4.6--- 7.7 2.7---- 0.0------------
2019-05-05 5.9 9.6 3.6--- 7.7 2.3---- 10.9------------
2019-05-04 8.5 15.6 1.5--- 1.7 1.3---- 0.5------------
2019-05-03 9.7 15.0 6.0--- 7.0 0.7---- 6.2------------
2019-05-02 13.2 20.5 5.2--- 2.7 3.0---- 0.0------------
2019-05-01 11.5 16.8 5.8--- 2.3 2.7---- 0.5------------
2019-04-30 10.6 12.2 9.0--- 7.7 2.0---- 6.4------------
2019-04-29 9.8 12.4 7.4--- 7.3 1.0---- 4.4------------
2019-04-28 9.6 11.4 8.4--- 8.0 2.7---- 25.8------------
2019-04-27 13.6 20.8 8.7--- 7.7 1.3---- 15.5------------
2019-04-26 17.0 29.0 5.1--- 3.0 1.3---- 0.8------------
2019-04-25 17.3 25.0 7.8--- 1.0 3.0---- 0.0------------
2019-04-24 13.2 16.5 10.0--- 5.7 5.0---- 0.0------------
2019-04-23 10.3 17.6 1.1--- 6.3 5.0---- 0.0------------
2019-04-22 9.4 15.1 4.0--- 5.0 2.0---- 2.0------------
2019-04-21 9.1 17.6 -0.7--- 4.0 1.7---- 0.0------------
2019-04-20 9.3 20.6 -2.5--- 3.3 1.3---- 0.0------------
2019-04-19 9.2 18.1 -1.4--- 0.7 2.0---- 0.0------------
2019-04-18 7.0 17.0 -1.8--- 3.3 1.0---- 0.0------------
2019-04-17 7.0 12.6 3.1--- 5.7 1.3---- 0.0------------
2019-04-16 3.4 12.9 -6.4--- 2.7 2.7---- 1.0------------
2019-04-15 4.1 11.2 -3.1--- 0.3 0.7---- 0.0------------
219.7 ms

 

Źródłem pochodzenia danych jest Instytut Meteorologii i Gospodarki Wodnej – Państwowy Instytut Badawczy. Dane Instytutu Meteorologii i Gospodarki Wodnej – Państwowego Instytutu Badawczego zostały przetworzone.

Dane źródłowe można odnaleźć na stronie https://dane.imgw.pl